createdAt,value
2019-06-15T00:01:49.237Z,66.70
2019-06-15T00:04:18.172Z,66.90
2019-06-15T00:06:47.144Z,66.80
2019-06-15T00:09:18.333Z,67.00
2019-06-15T00:11:49.558Z,67.10
2019-06-15T00:14:21.484Z,67.20
2019-06-15T00:16:50.436Z,67.60
2019-06-15T00:19:19.409Z,67.30
2019-06-15T00:21:48.381Z,67.90
2019-06-15T00:24:17.412Z,68.10
2019-06-15T00:26:46.297Z,67.90
2019-06-15T00:29:15.296Z,68.30
2019-06-15T00:31:44.269Z,68.50
2019-06-15T00:34:13.210Z,68.50
2019-06-15T00:36:42.126Z,68.60
2019-06-15T00:39:11.147Z,69.50
2019-06-15T00:41:40.211Z,69.30
2019-06-15T00:44:09.247Z,69.40
2019-06-15T00:46:38.158Z,69.90
2019-06-15T00:49:07.141Z,69.70
2019-06-15T00:51:36.072Z,69.80
2019-06-15T00:54:05.141Z,69.90
2019-06-15T00:56:33.989Z,69.80
2019-06-15T00:59:03.116Z,70.40
2019-06-15T01:01:34.769Z,70.70
2019-06-15T01:04:02.980Z,70.50
2019-06-15T01:06:32.036Z,70.70
2019-06-15T01:09:01.050Z,70.90
2019-06-15T01:11:29.949Z,71.30
2019-06-15T01:13:58.967Z,71.20
2019-06-15T01:16:28.035Z,72.40
2019-06-15T01:18:57.017Z,72.50
2019-06-15T01:21:26.064Z,72.60
2019-06-15T01:23:55.066Z,72.40
2019-06-15T01:26:24.133Z,72.80
2019-06-15T01:28:53.104Z,73.70
2019-06-15T01:31:22.062Z,73.80
2019-06-15T01:33:50.991Z,73.90
2019-06-15T01:36:20.552Z,73.70
2019-06-15T01:38:49.405Z,74.50
2019-06-15T01:41:18.337Z,74.90
2019-06-15T01:43:47.454Z,74.50
2019-06-15T01:46:16.486Z,74.50
2019-06-15T01:48:45.601Z,74.50
2019-06-15T01:51:14.591Z,74.20
2019-06-15T01:53:43.520Z,74.50
2019-06-15T01:56:12.545Z,74.10
2019-06-15T01:58:42.023Z,74.80
2019-06-15T02:01:10.985Z,75.30
2019-06-15T02:03:39.960Z,75.70
2019-06-15T02:06:08.969Z,75.50
2019-06-15T02:08:37.932Z,76.70
2019-06-15T02:11:07.058Z,75.40
2019-06-15T02:13:35.894Z,76.00
2019-06-15T02:16:05.211Z,76.10
2019-06-15T02:18:34.113Z,75.50
2019-06-15T02:21:03.019Z,75.50
2019-06-15T02:23:32.163Z,76.60
2019-06-15T02:26:01.163Z,76.70
2019-06-15T02:28:30.116Z,76.90
2019-06-15T02:30:59.179Z,76.40
2019-06-15T02:33:28.098Z,77.00
2019-06-15T02:35:57.147Z,77.90
2019-06-15T02:38:26.116Z,78.20
2019-06-15T02:40:55.149Z,77.80
2019-06-15T02:43:24.571Z,78.20
2019-06-15T02:45:53.540Z,78.90
2019-06-15T02:48:22.561Z,80.10
2019-06-15T02:50:51.728Z,80.20
2019-06-15T02:53:20.602Z,79.90
2019-06-15T02:55:50.906Z,80.60
2019-06-15T02:58:20.329Z,79.60
2019-06-15T03:01:02.546Z,81.60
2019-06-15T03:03:31.579Z,82.20
2019-06-15T03:06:00.991Z,82.10
2019-06-15T03:08:30.190Z,83.50
2019-06-15T03:10:59.197Z,83.90
2019-06-15T03:13:28.348Z,84.10
2019-06-15T03:15:57.400Z,84.90
2019-06-15T03:18:26.386Z,85.80
2019-06-15T03:20:55.279Z,85.70
2019-06-15T03:23:24.407Z,85.80
2019-06-15T03:26:05.096Z,86.10
2019-06-15T03:28:24.193Z,86.30
2019-06-15T03:30:53.301Z,87.20
2019-06-15T03:33:22.282Z,87.60
2019-06-15T03:35:51.324Z,87.80
2019-06-15T03:38:20.228Z,89.10
2019-06-15T03:40:49.222Z,88.30
2019-06-15T03:43:18.572Z,89.00
2019-06-15T03:45:47.639Z,88.50
2019-06-15T03:48:16.616Z,87.70
2019-06-15T03:50:45.628Z,89.00
2019-06-15T03:53:14.620Z,89.50
2019-06-15T03:55:43.876Z,89.30
2019-06-15T03:58:12.896Z,88.80
2019-06-15T04:01:10.464Z,90.30
2019-06-15T04:03:41.246Z,88.10
2019-06-15T04:06:10.293Z,87.40
2019-06-15T04:08:39.174Z,90.50
2019-06-15T04:11:08.096Z,90.80
2019-06-15T04:13:37.272Z,90.50
2019-06-15T04:16:06.332Z,91.00
2019-06-15T04:18:35.354Z,90.80
2019-06-15T04:21:04.517Z,91.30
2019-06-15T04:23:33.561Z,91.30
2019-06-15T04:26:02.725Z,90.90
2019-06-15T04:28:31.927Z,91.90
2019-06-15T04:31:00.775Z,91.80
2019-06-15T04:33:30.039Z,91.20
2019-06-15T04:35:59.223Z,91.50
2019-06-15T04:38:28.276Z,91.40
2019-06-15T04:40:57.944Z,90.70
2019-06-15T04:43:27.264Z,90.70
2019-06-15T04:45:56.307Z,90.40
2019-06-15T04:48:25.371Z,90.80
2019-06-15T04:50:54.310Z,91.40
2019-06-15T04:53:23.326Z,92.10
2019-06-15T04:55:52.370Z,92.40
2019-06-15T04:58:21.462Z,92.60
2019-06-15T05:00:50.501Z,92.90
2019-06-15T05:03:19.598Z,93.20
2019-06-15T05:05:48.794Z,92.60
2019-06-15T05:08:18.181Z,92.20
2019-06-15T05:10:47.604Z,93.70
2019-06-15T05:13:17.082Z,93.70
2019-06-15T05:15:46.460Z,94.40
2019-06-15T05:18:15.740Z,93.80
2019-06-15T05:20:44.696Z,95.30
2019-06-15T05:23:16.250Z,94.60
2019-06-15T05:25:45.890Z,95.80
2019-06-15T05:28:15.278Z,95.40
2019-06-15T05:30:44.236Z,96.30
2019-06-15T05:33:13.397Z,95.30
2019-06-15T05:35:42.362Z,93.60
2019-06-15T05:38:11.933Z,94.50
2019-06-15T05:40:43.177Z,93.60
2019-06-15T05:43:12.986Z,93.10
2019-06-15T05:45:42.157Z,93.20
2019-06-15T05:48:11.362Z,92.60
2019-06-15T05:50:40.789Z,93.60
2019-06-15T05:53:10.132Z,94.10
2019-06-15T05:55:39.653Z,92.70
2019-06-15T05:58:08.733Z,93.30
2019-06-15T06:00:37.894Z,93.40
2019-06-15T06:03:07.145Z,94.00
2019-06-15T06:05:36.524Z,93.10
2019-06-15T06:08:09.151Z,93.50
2019-06-15T06:10:38.474Z,93.40
2019-06-15T06:13:07.707Z,93.70
2019-06-15T06:15:36.989Z,94.50
2019-06-15T06:18:06.606Z,93.30
2019-06-15T06:20:36.475Z,94.70
2019-06-15T06:23:05.933Z,94.30
2019-06-15T06:25:35.412Z,94.30
2019-06-15T06:28:05.652Z,93.70
2019-06-15T06:30:34.815Z,93.60
2019-06-15T06:33:04.040Z,94.40
2019-06-15T06:35:33.284Z,93.40
2019-06-15T06:38:02.400Z,93.50
2019-06-15T06:40:31.407Z,94.30
2019-06-15T06:43:00.627Z,94.20
2019-06-15T06:45:30.112Z,94.30
2019-06-15T06:47:59.376Z,94.40
2019-06-15T06:50:28.740Z,94.30
2019-06-15T06:52:57.992Z,94.10
2019-06-15T06:55:27.290Z,94.30
2019-06-15T06:57:57.384Z,93.80
2019-06-15T07:00:27.541Z,93.90
2019-06-15T07:02:56.732Z,94.00
2019-06-15T07:05:26.359Z,94.60
2019-06-15T07:07:55.364Z,95.10
2019-06-15T07:10:24.464Z,94.40
2019-06-15T07:12:53.598Z,94.40
2019-06-15T07:15:22.945Z,94.50
2019-06-15T07:17:52.085Z,94.60
2019-06-15T07:20:21.535Z,94.20
2019-06-15T07:22:50.578Z,93.80
2019-06-15T07:25:19.643Z,94.20
2019-06-15T07:27:48.665Z,94.70
2019-06-15T07:30:18.233Z,94.20
2019-06-15T07:32:47.427Z,94.40
2019-06-15T07:35:16.774Z,92.90
2019-06-15T07:37:45.982Z,92.40
2019-06-15T07:40:15.216Z,93.70
2019-06-15T07:42:47.584Z,93.30
2019-06-15T07:45:17.113Z,93.70
2019-06-15T07:47:46.131Z,93.60
2019-06-15T07:50:15.355Z,92.40
2019-06-15T07:52:45.170Z,92.80
2019-06-15T07:55:14.374Z,92.30
2019-06-15T07:57:43.702Z,92.90
2019-06-15T08:00:13.001Z,92.60
2019-06-15T08:02:42.133Z,93.40
2019-06-15T08:05:11.639Z,92.80
2019-06-15T08:07:40.936Z,92.10
2019-06-15T08:10:10.238Z,93.30
2019-06-15T08:12:39.101Z,92.40
2019-06-15T08:15:09.522Z,91.90
2019-06-15T08:17:38.637Z,92.90
2019-06-15T08:20:10.531Z,92.90
2019-06-15T08:22:39.749Z,93.10
2019-06-15T08:25:09.851Z,92.80
2019-06-15T08:27:39.573Z,92.50
2019-06-15T08:30:10.338Z,93.30
2019-06-15T08:32:39.757Z,91.90
2019-06-15T08:35:09.680Z,92.80
2019-06-15T08:37:39.779Z,92.80
2019-06-15T08:40:09.418Z,93.00
2019-06-15T08:42:38.631Z,91.30
2019-06-15T08:45:09.478Z,93.20
2019-06-15T08:47:38.946Z,92.50
2019-06-15T08:50:08.254Z,92.50
2019-06-15T08:52:37.301Z,93.00
2019-06-15T08:55:07.415Z,92.90
2019-06-15T08:57:36.645Z,92.50
2019-06-15T09:00:07.231Z,92.90
2019-06-15T09:02:36.391Z,92.70
2019-06-15T09:05:06.365Z,92.60
2019-06-15T09:07:35.391Z,92.40
2019-06-15T09:10:04.832Z,92.10
2019-06-15T09:12:33.776Z,92.00
2019-06-15T09:15:02.765Z,92.00
2019-06-15T09:17:32.121Z,91.90
2019-06-15T09:20:13.955Z,92.00
2019-06-15T09:22:43.007Z,92.40
2019-06-15T09:25:12.078Z,93.00
2019-06-15T09:27:41.950Z,92.90
2019-06-15T09:30:11.401Z,92.60
2019-06-15T09:32:40.403Z,92.50
2019-06-15T09:35:09.949Z,92.90
2019-06-15T09:37:39.081Z,91.80
2019-06-15T09:40:10.013Z,91.80
2019-06-15T09:42:38.941Z,91.40
2019-06-15T09:45:09.405Z,91.80
2019-06-15T09:47:38.587Z,92.40
2019-06-15T09:50:12.071Z,91.20
2019-06-15T09:52:41.221Z,91.30
2019-06-15T09:55:11.914Z,91.30
2019-06-15T09:57:40.983Z,92.10
2019-06-15T10:00:10.685Z,92.10
2019-06-15T10:02:39.893Z,92.30
2019-06-15T10:05:09.706Z,92.20
2019-06-15T10:07:38.795Z,92.50
2019-06-15T10:10:09.094Z,91.80
2019-06-15T10:12:38.447Z,92.40
2019-06-15T10:15:07.897Z,92.40
2019-06-15T10:17:37.053Z,92.60
2019-06-15T10:20:07.093Z,92.70
2019-06-15T10:22:36.221Z,92.80
2019-06-15T10:25:05.891Z,92.70
2019-06-15T10:27:35.263Z,92.70
2019-06-15T10:30:04.964Z,92.30
2019-06-15T10:32:33.971Z,91.90
2019-06-15T10:35:03.463Z,91.50
2019-06-15T10:37:32.702Z,91.70
2019-06-15T10:40:01.987Z,91.30
2019-06-15T10:42:31.029Z,91.60
2019-06-15T10:45:00.057Z,91.90
2019-06-15T10:47:29.193Z,91.80
2019-06-15T10:49:58.590Z,91.60
2019-06-15T10:52:27.878Z,91.70
2019-06-15T10:54:57.049Z,91.50
2019-06-15T10:57:26.432Z,91.80
2019-06-15T10:59:57.601Z,91.50
2019-06-15T11:02:26.483Z,91.60
2019-06-15T11:04:56.201Z,91.30
2019-06-15T11:07:25.642Z,91.20
2019-06-15T11:09:54.963Z,91.40
2019-06-15T11:12:24.414Z,91.90
2019-06-15T11:14:56.106Z,91.90
2019-06-15T11:17:25.302Z,91.80
2019-06-15T11:19:54.849Z,91.30
2019-06-15T11:22:23.988Z,91.50
2019-06-15T11:24:53.272Z,91.60
2019-06-15T11:27:22.770Z,91.60
2019-06-15T11:29:52.015Z,91.20
2019-06-15T11:32:27.187Z,91.30
2019-06-15T11:35:22.887Z,91.40
2019-06-15T11:38:01.854Z,91.40
2019-06-15T11:40:55.352Z,91.30
2019-06-15T11:43:24.841Z,91.10
2019-06-15T11:45:54.053Z,90.70
2019-06-15T11:48:23.314Z,90.80
2019-06-15T11:50:52.427Z,90.80
2019-06-15T11:53:21.530Z,90.30
2019-06-15T11:55:50.510Z,89.30
2019-06-15T11:58:19.422Z,88.20
2019-06-15T12:00:48.659Z,88.00
2019-06-15T12:03:17.626Z,86.00
2019-06-15T12:05:46.835Z,85.00
2019-06-15T12:08:15.923Z,84.50
2019-06-15T12:10:49.992Z,83.50
2019-06-15T12:13:19.089Z,82.50
2019-06-15T12:15:48.151Z,81.70
2019-06-15T12:18:17.408Z,79.40
2019-06-15T12:20:46.615Z,78.70
2019-06-15T12:23:15.772Z,78.20
2019-06-15T12:25:45.108Z,77.90
2019-06-15T12:28:14.245Z,76.40
2019-06-15T12:30:47.462Z,76.60
2019-06-15T12:33:14.829Z,77.30
2019-06-15T12:35:44.227Z,78.00
2019-06-15T12:38:13.252Z,79.10
2019-06-15T12:40:42.309Z,77.20
2019-06-15T12:43:11.306Z,71.10
2019-06-15T12:45:40.916Z,68.20
2019-06-15T12:48:09.944Z,65.60
2019-06-15T12:50:39.029Z,65.70
2019-06-15T12:53:08.637Z,66.70
2019-06-15T12:55:38.468Z,66.40
2019-06-15T12:58:07.942Z,66.70
2019-06-15T13:00:39.772Z,67.40
2019-06-15T13:03:10.179Z,67.90
2019-06-15T13:05:39.328Z,68.30
2019-06-15T13:08:08.492Z,68.70
2019-06-15T13:10:37.694Z,69.00
2019-06-15T13:13:06.673Z,69.00
2019-06-15T13:15:36.047Z,69.30
2019-06-15T13:18:06.639Z,69.20
2019-06-15T13:20:36.837Z,69.30
2019-06-15T13:23:05.923Z,70.00
2019-06-15T13:25:34.987Z,70.40
2019-06-15T13:28:03.968Z,70.40
2019-06-15T13:30:33.257Z,70.10
2019-06-15T13:33:02.355Z,69.90
2019-06-15T13:35:31.342Z,70.40
2019-06-15T13:38:00.349Z,70.50
2019-06-15T13:40:29.868Z,70.30
2019-06-15T13:42:59.208Z,69.10
2019-06-15T13:45:28.363Z,66.70
2019-06-15T13:47:57.792Z,63.70
2019-06-15T13:50:27.021Z,62.60
2019-06-15T13:52:56.091Z,61.30
2019-06-15T13:55:25.129Z,61.60
2019-06-15T13:57:56.989Z,61.40
2019-06-15T14:00:26.123Z,61.80
2019-06-15T14:02:55.396Z,62.00
2019-06-15T14:05:24.489Z,62.20
2019-06-15T14:07:53.911Z,61.40
2019-06-15T14:10:23.232Z,61.10
2019-06-15T14:12:52.433Z,61.00
2019-06-15T14:15:21.618Z,61.10
2019-06-15T14:17:50.703Z,60.30
2019-06-15T14:20:19.851Z,59.80
2019-06-15T14:22:49.059Z,59.40
2019-06-15T14:25:18.142Z,59.10
2019-06-15T14:27:47.369Z,59.00
2019-06-15T14:30:16.777Z,59.10
2019-06-15T14:32:46.050Z,58.70
2019-06-15T14:35:15.849Z,58.90
2019-06-15T14:37:45.661Z,59.20
2019-06-15T14:40:16.685Z,59.60
2019-06-15T14:42:46.294Z,60.10
2019-06-15T14:45:16.764Z,60.10
2019-06-15T14:47:45.987Z,60.40
2019-06-15T14:50:15.210Z,60.00
2019-06-15T14:52:44.177Z,59.90
2019-06-15T14:55:13.669Z,59.90
2019-06-15T14:57:44.894Z,59.90
2019-06-15T15:00:16.666Z,59.80
2019-06-15T15:02:46.825Z,59.80
2019-06-15T15:05:17.934Z,59.50
2019-06-15T15:07:47.103Z,58.90
2019-06-15T15:10:16.461Z,59.00
2019-06-15T15:12:46.039Z,60.80
2019-06-15T15:15:17.074Z,61.90
2019-06-15T15:17:46.432Z,62.70
2019-06-15T15:20:17.325Z,63.30
2019-06-15T15:22:46.651Z,63.80
2019-06-15T15:25:16.879Z,64.20
2019-06-15T15:27:46.761Z,64.60
2019-06-15T15:30:27.177Z,64.20
2019-06-15T15:32:57.147Z,64.30
2019-06-15T15:35:26.836Z,64.10
2019-06-15T15:37:56.730Z,64.00
2019-06-15T15:40:27.409Z,63.60
2019-06-15T15:42:57.442Z,63.60
2019-06-15T15:45:26.647Z,63.30
2019-06-15T15:47:55.721Z,62.30
2019-06-15T15:50:26.315Z,61.80
2019-06-15T15:52:56.783Z,61.30
2019-06-15T15:55:31.442Z,59.70
2019-06-15T15:58:00.399Z,58.80
2019-06-15T16:00:33.560Z,58.50
2019-06-15T16:03:02.952Z,58.00
2019-06-15T16:05:36.816Z,57.90
2019-06-15T16:08:06.590Z,56.90
2019-06-15T16:10:37.346Z,55.70
2019-06-15T16:13:06.765Z,52.80
2019-06-15T16:15:37.157Z,53.30
2019-06-15T16:18:06.938Z,52.10
2019-06-15T16:20:37.057Z,50.70
2019-06-15T16:23:07.590Z,50.60
2019-06-15T16:25:37.350Z,51.30
2019-06-15T16:28:12.509Z,52.20
2019-06-15T16:31:01.618Z,53.20
2019-06-15T16:33:13.129Z,54.00
2019-06-15T16:35:42.338Z,54.50
2019-06-15T16:38:11.668Z,55.30
2019-06-15T16:40:40.958Z,55.90
2019-06-15T16:43:10.584Z,56.10
2019-06-15T16:45:39.930Z,56.60
2019-06-15T16:48:09.123Z,57.10
2019-06-15T16:50:38.084Z,57.20
2019-06-15T16:53:07.298Z,56.90
2019-06-15T16:55:36.981Z,56.50
2019-06-15T16:58:07.461Z,56.30
2019-06-15T17:00:37.324Z,56.80
2019-06-15T17:03:19.849Z,57.00
2019-06-15T17:05:37.567Z,57.00
2019-06-15T17:08:07.295Z,56.30
2019-06-15T17:10:41.010Z,56.40
2019-06-15T17:13:10.282Z,55.90
2019-06-15T17:15:39.628Z,55.20
2019-06-15T17:18:09.146Z,55.30
2019-06-15T17:20:47.672Z,55.60
2019-06-15T17:23:21.928Z,55.70
2019-06-15T17:25:54.527Z,55.70
2019-06-15T17:28:23.593Z,55.70
2019-06-15T17:30:56.228Z,54.90
2019-06-15T17:33:34.222Z,54.90
2019-06-15T17:36:02.653Z,55.50
2019-06-15T17:38:27.394Z,56.30
2019-06-15T17:40:57.291Z,56.60
2019-06-15T17:43:27.121Z,56.60
2019-06-15T17:45:58.540Z,56.50
2019-06-15T17:48:27.999Z,56.40
2019-06-15T17:50:57.371Z,56.60
2019-06-15T17:53:26.706Z,56.80
2019-06-15T17:55:56.175Z,57.00
2019-06-15T17:58:26.342Z,57.20
2019-06-15T18:00:57.533Z,57.40
2019-06-15T18:03:27.332Z,57.60
2019-06-15T18:05:58.299Z,57.70
2019-06-15T18:08:29.007Z,58.00
2019-06-15T18:10:58.925Z,58.20
2019-06-15T18:13:30.333Z,58.30
2019-06-15T18:16:00.555Z,58.30
2019-06-15T18:18:32.310Z,58.20
2019-06-15T18:21:02.069Z,58.30
2019-06-15T18:23:31.422Z,58.50
2019-06-15T18:26:00.455Z,58.60
2019-06-15T18:28:30.666Z,58.70
2019-06-15T18:30:59.641Z,58.90
2019-06-15T18:33:29.106Z,58.90
2019-06-15T18:35:58.457Z,59.00
2019-06-15T18:38:27.652Z,59.10
2019-06-15T18:40:56.564Z,59.60
2019-06-15T18:43:26.206Z,59.80
2019-06-15T18:45:56.835Z,60.10
2019-06-15T18:48:26.489Z,60.40
2019-06-15T18:50:56.104Z,60.40
2019-06-15T18:53:26.833Z,60.50
2019-06-15T18:55:56.370Z,60.20
2019-06-15T18:58:26.203Z,60.10
2019-06-15T19:00:55.782Z,59.90
2019-06-15T19:03:26.261Z,60.00
2019-06-15T19:05:56.963Z,60.00
2019-06-15T19:08:26.271Z,60.00
2019-06-15T19:10:56.226Z,60.10
2019-06-15T19:13:26.857Z,60.70
2019-06-15T19:15:57.262Z,61.10
2019-06-15T19:18:26.800Z,61.20
2019-06-15T19:20:56.294Z,62.00
2019-06-15T19:23:26.601Z,61.40
2019-06-15T19:25:57.419Z,61.50
2019-06-15T19:28:27.540Z,61.70
2019-06-15T19:30:58.795Z,62.00
2019-06-15T19:33:29.199Z,63.20
2019-06-15T19:35:58.414Z,62.70
2019-06-15T19:38:27.907Z,62.90
2019-06-15T19:40:57.831Z,63.30
2019-06-15T19:43:27.142Z,63.60
2019-06-15T19:45:56.683Z,64.10
2019-06-15T19:48:26.795Z,64.60
2019-06-15T19:50:56.793Z,64.40
2019-06-15T19:53:27.310Z,64.50
2019-06-15T19:55:57.369Z,64.80
2019-06-15T19:58:26.885Z,65.40
2019-06-15T20:00:58.750Z,65.50
2019-06-15T20:03:27.790Z,65.50
2019-06-15T20:05:57.116Z,65.90
2019-06-15T20:08:26.621Z,66.30
2019-06-15T20:10:56.306Z,66.40
2019-06-15T20:13:25.823Z,66.90
2019-06-15T20:15:57.116Z,67.20
2019-06-15T20:18:26.776Z,67.70
2019-06-15T20:20:56.665Z,67.80
2019-06-15T20:23:26.403Z,67.90
2019-06-15T20:25:56.607Z,68.20
2019-06-15T20:28:27.297Z,68.10
2019-06-15T20:30:57.137Z,68.30
2019-06-15T20:33:26.399Z,68.80
2019-06-15T20:35:57.404Z,68.80
2019-06-15T20:38:26.935Z,69.10
2019-06-15T20:40:56.653Z,69.40
2019-06-15T20:43:27.351Z,69.50
2019-06-15T20:45:56.634Z,69.60
2019-06-15T20:48:26.813Z,69.90
2019-06-15T20:50:56.700Z,70.20
2019-06-15T20:53:26.283Z,70.30
2019-06-15T20:55:57.029Z,70.40
2019-06-15T20:58:26.456Z,70.40
2019-06-15T21:00:56.315Z,70.60
2019-06-15T21:03:26.815Z,70.70
2019-06-15T21:05:57.246Z,71.10
2019-06-15T21:08:26.806Z,71.50
2019-06-15T21:10:56.365Z,71.70
2019-06-15T21:13:26.456Z,72.30
2019-06-15T21:15:56.783Z,72.70
2019-06-15T21:18:26.586Z,72.80
2019-06-15T21:20:56.225Z,72.60
2019-06-15T21:23:26.807Z,72.20
2019-06-15T21:25:57.179Z,72.10
2019-06-15T21:28:27.302Z,72.00
2019-06-15T21:30:56.615Z,71.60
2019-06-15T21:33:26.512Z,71.40
2019-06-15T21:35:56.815Z,71.60
2019-06-15T21:38:26.497Z,71.80
2019-06-15T21:40:57.017Z,72.00
2019-06-15T21:43:26.628Z,72.20
2019-06-15T21:45:57.078Z,72.20
2019-06-15T21:48:26.939Z,72.30
2019-06-15T21:50:59.292Z,72.10
2019-06-15T21:53:27.090Z,72.00
2019-06-15T21:55:56.366Z,72.10
2019-06-15T21:58:27.181Z,72.00
2019-06-15T22:01:22.449Z,72.20
2019-06-15T22:03:51.439Z,72.10
2019-06-15T22:06:20.574Z,72.20
2019-06-15T22:08:49.614Z,72.10
2019-06-15T22:11:18.705Z,73.00
2019-06-15T22:13:47.813Z,72.60
2019-06-15T22:16:17.215Z,72.70
2019-06-15T22:18:47.410Z,72.90
2019-06-15T22:21:17.033Z,72.80
2019-06-15T22:23:47.534Z,72.40
2019-06-15T22:26:17.188Z,72.50
2019-06-15T22:28:47.116Z,71.80
2019-06-15T22:31:17.087Z,71.30
2019-06-15T22:33:47.244Z,70.60
2019-06-15T22:36:24.905Z,70.30
2019-06-15T22:38:47.572Z,70.10
2019-06-15T22:41:16.845Z,70.10
2019-06-15T22:43:46.376Z,70.30
2019-06-15T22:46:16.628Z,71.20
2019-06-15T22:48:46.979Z,70.50
2019-06-15T22:51:17.008Z,70.90
2019-06-15T22:53:47.177Z,71.20
2019-06-15T22:56:17.269Z,71.30
2019-06-15T22:58:46.683Z,71.30
2019-06-15T23:01:16.858Z,71.00
2019-06-15T23:03:46.771Z,70.80
2019-06-15T23:06:16.351Z,70.90
2019-06-15T23:08:46.987Z,70.80
2019-06-15T23:11:17.530Z,70.80
2019-06-15T23:13:47.233Z,70.30
2019-06-15T23:16:16.594Z,69.90
2019-06-15T23:18:46.729Z,69.80
2019-06-15T23:21:17.296Z,70.60
2019-06-15T23:23:47.168Z,69.90
2019-06-15T23:26:16.712Z,70.10
2019-06-15T23:28:46.717Z,71.00
2019-06-15T23:31:16.701Z,70.50
2019-06-15T23:33:46.767Z,70.60
2019-06-15T23:36:21.697Z,70.60
2019-06-15T23:38:50.646Z,70.80
2019-06-15T23:41:19.699Z,70.50
2019-06-15T23:43:48.915Z,70.30
2019-06-15T23:46:18.630Z,70.50
2019-06-15T23:48:47.681Z,70.60
2019-06-15T23:51:17.105Z,70.70
2019-06-15T23:53:46.394Z,71.00
2019-06-15T23:56:15.466Z,71.20
2019-06-15T23:58:46.343Z,71.50
